Time;durP1;ratioP1;P1;durP2;ratioP2;P2;SDS_P1;SDS_P2;PMS_P1;PMS_P2;Temp;Humidity;BMP_temperature;BMP_pressure;BME280_temperature;BME280_humidity;BME280_pressure;Samples;Min_cycle;Max_cycle;Signal;HPM_P1;HPM_P2
2022/02/03 00:00:19;;;;;;;3.63;1.02;;;2.10;99.90;;;;;;4963710;29;20012;-78
2022/02/03 00:03:03;;;;;;;3.65;1.00;;;2.00;99.90;;;;;;4947315;29;20004;-79
2022/02/03 00:05:40;;;;;;;4.25;1.40;;;1.90;99.90;;;;;;4963633;29;20004;-79
2022/02/03 00:08:30;;;;;;;5.03;1.20;;;1.80;99.90;;;;;;4963673;29;20007;-79
2022/02/03 01:52:44;;;;;;;1.30;0.40;;;1.70;99.90;;;;;;4961737;29;20027;-79
2022/02/03 01:55:13;;;;;;;3.40;0.30;;;1.50;99.90;;;;;;4960267;29;20044;-81
2022/02/03 01:58:04;;;;;;;1.25;0.40;;;1.50;99.90;;;;;;4929439;29;20016;-81
2022/02/03 02:00:39;;;;;;;1.77;0.63;;;1.50;99.90;;;;;;4960762;28;20019;-82
2022/02/03 02:03:14;;;;;;;1.20;0.30;;;1.40;99.90;;;;;;4961014;29;20027;-82
2022/02/03 02:06:09;;;;;;;2.35;0.40;;;1.40;99.90;;;;;;4945167;29;20016;-76
2022/02/03 02:08:45;;;;;;;1.35;0.40;;;1.40;99.90;;;;;;4961040;29;20036;-78
2022/02/03 02:11:38;;;;;;;4.13;0.50;;;1.40;99.90;;;;;;4961044;28;20016;-79
2022/02/03 04:51:07;;;;;;;2.72;0.52;;;1.50;99.90;;;;;;4867330;29;20067;-83
2022/02/03 04:57:06;;;;;;;4.53;0.75;;;1.40;99.90;;;;;;4861509;29;20110;-73
2022/02/03 05:03:22;;;;;;;1.67;0.50;;;1.50;99.90;;;;;;4863367;29;20098;-79
2022/02/03 05:12:44;;;;;;;1.48;0.30;;;1.40;99.90;;;;;;4865117;29;20090;-81
2022/02/03 05:18:47;;;;;;;2.70;0.40;;;1.40;99.90;;;;;;4861520;29;20030;-81
2022/02/03 05:25:48;;;;;;;3.08;0.70;;;1.30;99.90;;;;;;4862608;29;20063;-80
2022/02/03 05:43:50;;;;;;;;;;;;;;;;;;;;;
2022/02/03 05:46:45;;;;;;;3.90;0.70;;;0.90;99.90;;;;;;4861812;29;20022;-79
2022/02/03 05:49:17;;;;;;;1.73;0.60;;;0.90;99.90;;;;;;4861062;29;20045;-80
2022/02/03 05:54:45;;;;;;;2.50;0.50;;;1.00;99.90;;;;;;4864914;29;20037;-79
2022/02/03 06:03:14;;;;;;;5.68;1.38;;;1.10;99.60;;;;;;4863931;29;20498;-81
2022/02/03 06:05:57;;;;;;;8.30;2.08;;;1.10;99.80;;;;;;4864709;29;20109;-80
2022/02/03 06:08:33;;;;;;;11.25;2.95;;;1.00;99.90;;;;;;4848571;29;20033;-81
2022/02/03 06:21:30;;;;;;;5.65;1.70;;;1.10;97.50;;;;;;4855945;29;20132;-78
2022/02/03 06:24:13;;;;;;;3.47;1.05;;;1.10;97.40;;;;;;4861032;29;20042;-81
2022/02/03 06:29:25;;;;;;;2.08;0.50;;;1.20;97.00;;;;;;4861095;29;20059;-80
2022/02/03 06:31:52;;;;;;;8.27;0.75;;;1.20;96.80;;;;;;4862635;29;20034;-77
2022/02/03 06:34:21;;;;;;;2.83;0.60;;;1.20;96.50;;;;;;4844871;29;20018;-78
2022/02/03 06:36:49;;;;;;;3.53;0.77;;;1.30;96.10;;;;;;4859550;29;20027;-79
2022/02/03 06:39:27;;;;;;;7.13;3.50;;;1.40;94.90;;;;;;4860380;29;20049;-81
2022/02/03 06:41:57;;;;;;;4.53;0.65;;;1.40;94.90;;;;;;4855692;29;20084;-79
2022/02/03 06:44:31;;;;;;;4.63;1.27;;;1.50;94.30;;;;;;4855494;29;20694;-79
2022/02/03 06:47:01;;;;;;;3.38;1.10;;;1.50;93.60;;;;;;4858501;29;20010;-80
2022/02/03 06:52:02;;;;;;;5.60;1.17;;;2.20;90.90;;;;;;4860176;29;20057;-79
2022/02/03 06:54:40;;;;;;;3.60;1.40;;;2.70;86.40;;;;;;4859337;29;20018;-77
2022/02/03 06:57:12;;;;;;;6.50;2.47;;;3.40;77.90;;;;;;4839869;29;20045;-79
2022/02/03 06:59:47;;;;;;;9.50;2.30;;;3.90;72.20;;;;;;4844130;29;20022;-82
2022/02/03 07:45:41;;;;;;;4.82;0.80;;;7.80;44.70;;;;;;5392517;23;20028;-80
2022/02/03 07:48:07;;;;;;;2.65;0.90;;;7.80;44.90;;;;;;4962799;29;20039;-81
2022/02/03 07:50:33;;;;;;;;;;;7.80;44.20;;;;;;4946893;29;20095;-80
2022/02/03 07:52:59;;;;;;;1.83;0.73;;;7.80;44.10;;;;;;4946841;29;19903;-80
2022/02/03 07:55:27;;;;;;;;;;;7.60;44.40;;;;;;4947814;29;20028;-80
2022/02/03 07:57:57;;;;;;;3.15;0.90;;;7.50;45.30;;;;;;4963796;29;19926;-79
2022/02/03 08:00:27;;;;;;;5.70;2.90;;;7.50;45.40;;;;;;4963193;29;20023;-79
2022/02/03 08:02:53;;;;;;;6.95;4.00;;;7.60;44.90;;;;;;4947194;29;20035;-79
2022/02/03 08:05:21;;;;;;;4.20;1.75;;;7.70;45.00;;;;;;4963453;29;20015;-80
2022/02/03 08:08:20;;;;;;;2.75;1.13;;;7.90;43.70;;;;;;4947305;29;20015;-79
2022/02/03 08:10:44;;;;;;;1.13;0.47;;;8.30;43.90;;;;;;4963083;29;20024;-79
2022/02/03 08:13:15;;;;;;;2.15;0.93;;;8.10;42.90;;;;;;4963309;29;20056;-79
2022/02/03 08:15:42;;;;;;;0.93;0.57;;;8.20;43.10;;;;;;4963448;29;20039;-79
2022/02/03 09:50:14;;;;;;;2.58;0.60;;;10.90;37.40;;;;;;4961944;29;19922;-79
2022/02/03 09:58:52;;;;;;;3.05;1.17;;;8.70;40.70;;;;;;4961559;29;20022;-81
2022/02/03 10:01:30;;;;;;;4.13;1.25;;;8.30;42.10;;;;;;4961732;29;20027;-81
2022/02/03 10:04:11;;;;;;;3.42;0.98;;;8.10;42.20;;;;;;4945464;29;20019;-80
2022/02/03 10:06:54;;;;;;;14.82;1.83;;;7.80;42.50;;;;;;4961480;29;20022;-80
2022/02/03 10:09:40;;;;;;;5.95;1.90;;;7.60;43.20;;;;;;4961592;29;20015;-81
2022/02/03 10:12:06;;;;;;;3.42;1.35;;;7.50;43.40;;;;;;4961358;29;20019;-79
2022/02/03 10:14:40;;;;;;;4.80;1.25;;;7.50;43.70;;;;;;4961313;29;20023;-78
2022/02/03 10:17:07;;;;;;;6.93;2.10;;;7.40;43.60;;;;;;4945154;29;20055;-79
2022/02/03 10:19:36;;;;;;;2.72;0.70;;;7.40;44.10;;;;;;4961442;29;20072;-79
2022/02/03 10:22:10;;;;;;;7.38;3.28;;;7.30;44.00;;;;;;4961432;29;20007;-82
2022/02/03 10:24:37;;;;;;;4.88;1.08;;;7.30;45.10;;;;;;4961336;29;20016;-79
2022/02/03 10:27:04;;;;;;;4.93;0.80;;;7.20;44.80;;;;;;4944989;29;20040;-82
2022/02/03 10:29:42;;;;;;;9.23;2.78;;;7.10;44.40;;;;;;4961310;29;20018;-80
2022/02/03 10:32:08;;;;;;;4.57;1.10;;;7.10;44.00;;;;;;4961428;29;20019;-79
2022/02/03 10:34:40;;;;;;;;;;;7.30;42.60;;;;;;4961644;29;20031;-80
2022/02/03 10:37:20;;;;;;;2.20;0.68;;;7.10;43.10;;;;;;4944854;29;19895;-80
2022/02/03 10:42:42;;;;;;;6.38;1.85;;;7.00;43.70;;;;;;4942155;29;20079;-79
2022/02/03 10:51:06;;;;;;;3.78;0.90;;;7.00;45.40;;;;;;4941979;29;20044;-81
2022/02/03 10:53:43;;;;;;;7.10;1.88;;;7.00;46.00;;;;;;4925716;29;20028;-80
2022/02/03 10:59:10;;;;;;;5.72;1.02;;;6.90;45.70;;;;;;4945646;29;19903;-80
2022/02/03 11:02:03;;;;;;;3.08;0.80;;;6.90;45.70;;;;;;4945521;29;20013;-80
2022/02/03 11:07:05;;;;;;;1.58;0.50;;;6.80;45.50;;;;;;4945423;29;20036;-78
2022/02/03 11:12:22;;;;;;;14.25;3.05;;;6.90;42.00;;;;;;4945388;29;20043;-79
2022/02/03 11:14:49;;;;;;;3.03;0.80;;;6.90;42.20;;;;;;4945097;29;20021;-79
2022/02/03 11:41:24;;;;;;;1.35;0.40;;;6.60;41.20;;;;;;5924359;23;20026;-80
2022/02/03 11:44:21;;;;;;;1.38;0.40;;;6.50;42.00;;;;;;4963047;29;20019;-79
2022/02/03 11:47:00;;;;;;;1.88;0.60;;;6.40;42.40;;;;;;4963393;29;20031;-79
2022/02/03 11:57:59;;;;;;;2.05;0.65;;;6.90;43.80;;;;;;4963920;29;20043;-78
2022/02/03 12:30:05;;;;;;;2.08;0.75;;;7.10;48.00;;;;;;5956861;23;20019;-77
2022/02/03 12:45:48;;;;;;;1.45;0.45;;;7.00;47.60;;;;;;4942808;29;20019;-79
2022/02/03 12:48:27;;;;;;;2.83;0.70;;;7.00;47.80;;;;;;4943274;29;20019;-80
2022/02/03 12:50:55;;;;;;;4.18;0.73;;;6.90;47.70;;;;;;4942537;29;20040;-78
2022/02/03 12:53:21;;;;;;;2.03;0.77;;;6.90;48.00;;;;;;4924453;29;20028;-78
2022/02/03 12:55:51;;;;;;;2.72;0.88;;;7.00;48.30;;;;;;4935714;29;20063;-78
2022/02/03 12:58:23;;;;;;;1.63;0.45;;;6.90;48.30;;;;;;4938838;29;20008;-78
2022/02/03 13:03:34;;;;;;;3.55;0.82;;;7.00;49.10;;;;;;4938657;29;20020;-78
2022/02/03 13:06:04;;;;;;;4.78;1.75;;;7.00;48.90;;;;;;4941304;29;20076;-80
2022/02/03 13:08:44;;;;;;;2.03;0.70;;;7.00;49.30;;;;;;4926236;29;20028;-79
2022/02/03 13:11:21;;;;;;;4.38;1.40;;;7.00;49.10;;;;;;4941421;29;20054;-80
2022/02/03 13:14:06;;;;;;;4.32;1.75;;;7.10;48.70;;;;;;4936551;29;20055;-78
2022/02/03 13:19:25;;;;;;;3.30;0.63;;;7.20;49.20;;;;;;5142122;23;20063;-80
2022/02/03 13:26:58;;;;;;;2.28;0.50;;;7.20;47.90;;;;;;4952179;29;20044;-77
2022/02/03 13:29:43;;;;;;;2.45;0.70;;;7.20;47.70;;;;;;4922114;29;20028;-77
2022/02/03 13:32:15;;;;;;;1.85;0.63;;;7.20;47.60;;;;;;4924459;29;20417;-77
2022/02/03 13:35:07;;;;;;;2.45;1.50;;;7.20;47.60;;;;;;4946583;29;20023;-78
2022/02/03 13:37:41;;;;;;;19.80;9.43;;;7.20;47.20;;;;;;4940240;29;20079;-79
2022/02/03 13:40:12;;;;;;;27.85;15.73;;;7.40;46.90;;;;;;4959084;29;20015;-79
2022/02/03 13:42:45;;;;;;;11.65;5.70;;;7.30;46.30;;;;;;4940603;29;20051;-78
2022/02/03 13:45:12;;;;;;;19.73;11.60;;;7.30;46.70;;;;;;4932018;29;20035;-79
2022/02/03 13:47:38;;;;;;;24.70;14.57;;;7.30;46.70;;;;;;4954325;29;20004;-78
2022/02/03 13:50:16;;;;;;;9.68;4.70;;;7.40;46.80;;;;;;4938915;29;20027;-78
2022/02/03 13:52:48;;;;;;;28.58;15.93;;;7.40;47.00;;;;;;4943526;29;20515;-79
2022/02/03 14:20:37;;;;;;;4.65;0.43;;;6.90;47.10;;;;;;4903090;29;20757;-78
2022/02/03 14:28:12;;;;;;;2.28;0.57;;;6.70;47.10;;;;;;4927635;29;20067;-79
2022/02/03 14:30:43;;;;;;;2.50;0.60;;;6.70;47.20;;;;;;4935762;29;20024;-78
2022/02/03 14:33:10;;;;;;;3.88;1.73;;;6.60;46.80;;;;;;4937016;29;20020;-79
2022/02/03 14:35:36;;;;;;;1.88;0.70;;;6.60;47.00;;;;;;4937028;29;20020;-79
2022/02/03 14:38:19;;;;;;;2.67;0.68;;;6.50;47.20;;;;;;4942663;29;20034;-77
2022/02/03 14:43:22;;;;;;;1.95;0.43;;;6.50;47.50;;;;;;4941726;29;20020;-78
2022/02/03 14:45:48;;;;;;;3.95;0.70;;;6.40;47.30;;;;;;4941642;29;20055;-79
2022/02/03 14:48:15;;;;;;;;;;;6.40;47.50;;;;;;4937531;29;20036;-78
2022/02/03 14:50:43;;;;;;;1.20;0.40;;;6.40;47.60;;;;;;4934248;29;19918;-79
2022/02/03 14:53:29;;;;;;;1.85;0.40;;;6.30;47.90;;;;;;4929854;29;20068;-79
2022/02/03 14:58:39;;;;;;;3.25;0.40;;;6.20;48.20;;;;;;4934153;29;20051;-80
2022/02/03 15:01:05;;;;;;;5.05;0.50;;;6.20;48.50;;;;;;4931908;29;20024;-80
2022/02/03 15:03:31;;;;;;;;;;;6.20;49.10;;;;;;4941720;29;20044;-79
2022/02/03 15:06:06;;;;;;;11.05;4.53;;;6.10;49.30;;;;;;4938783;29;19918;-79
2022/02/03 15:11:27;;;;;;;9.82;4.15;;;6.00;50.00;;;;;;4945131;29;20016;-79
2022/02/03 15:13:48;;;;;;;8.45;2.55;;;6.00;50.60;;;;;;4938740;29;20028;-80
2022/02/03 15:16:15;;;;;;;3.42;1.42;;;5.90;51.20;;;;;;4943021;29;20009;-80
2022/02/03 15:18:41;;;;;;;3.95;1.30;;;5.90;51.80;;;;;;4955729;29;20044;-79
2022/02/03 15:21:07;;;;;;;;;;;5.70;52.20;;;;;;4961901;29;20025;-80
2022/02/03 15:23:34;;;;;;;3.85;1.02;;;5.60;52.70;;;;;;4957608;29;19910;-80
2022/02/03 15:26:00;;;;;;;2.85;1.00;;;5.50;53.20;;;;;;4939246;29;20012;-79
2022/02/03 15:28:26;;;;;;;5.00;0.88;;;5.40;53.90;;;;;;4946851;29;20035;-78
2022/02/03 15:30:55;;;;;;;5.38;0.77;;;5.20;55.20;;;;;;4946968;29;20032;-79
2022/02/03 15:33:27;;;;;;;2.70;0.90;;;5.20;55.30;;;;;;4946497;29;20043;-79
2022/02/03 15:35:58;;;;;;;4.40;1.00;;;5.10;55.90;;;;;;4946502;29;20032;-80
2022/02/03 15:38:32;;;;;;;3.25;0.70;;;5.00;56.70;;;;;;4959530;29;20036;-80
2022/02/03 15:41:03;;;;;;;3.15;0.93;;;5.00;57.50;;;;;;4957198;29;20030;-80
2022/02/03 15:43:31;;;;;;;2.85;0.60;;;4.70;58.30;;;;;;4940026;29;20020;-80
2022/02/03 15:46:00;;;;;;;7.07;0.80;;;4.60;59.10;;;;;;4942550;29;20031;-79
2022/02/03 15:51:13;;;;;;;3.75;1.30;;;4.40;60.80;;;;;;4953591;29;20027;-80
2022/02/03 16:00:09;;;;;;;;;;;4.00;63.90;;;;;;4963850;29;20035;-79
2022/02/03 16:17:23;;;;;;;36.35;13.73;;;3.10;70.10;;;;;;4961241;29;20031;-80
2022/02/03 16:20:05;;;;;;;;;;;2.90;71.60;;;;;;4961722;29;20023;-79
2022/02/03 16:25:06;;;;;;;83.07;30.27;;;2.70;73.10;;;;;;4953994;29;20036;-80
2022/02/03 16:42:10;;;;;;;72.82;36.15;;;2.30;80.10;;;;;;4953410;29;20083;-79
2022/02/03 16:54:33;;;;;;;85.38;34.05;;;2.10;87.50;;;;;;4953725;29;20043;-80
2022/02/03 16:57:03;;;;;;;;;;;2.00;87.40;;;;;;4957874;29;20055;-80
2022/02/03 16:59:32;;;;;;;97.20;40.78;;;2.00;90.80;;;;;;4959404;29;19911;-79
2022/02/03 17:02:01;;;;;;;56.38;24.67;;;1.90;90.50;;;;;;4959221;28;20027;-80
2022/02/03 17:04:26;;;;;;;42.50;19.70;;;1.90;91.80;;;;;;4959721;29;20032;-79
2022/02/03 17:06:52;;;;;;;;;;;1.80;91.30;;;;;;4959045;29;20047;-79
2022/02/03 17:09:18;;;;;;;52.25;24.80;;;1.80;91.60;;;;;;4938142;29;19919;-80
2022/02/03 17:11:44;;;;;;;64.50;29.70;;;1.90;91.30;;;;;;4940847;29;20032;-79
2022/02/03 17:14:09;;;;;;;;;;;1.80;91.70;;;;;;4958583;28;20036;-80
2022/02/03 17:16:35;;;;;;;25.25;11.15;;;1.70;93.70;;;;;;4941363;29;19914;-79
2022/02/03 17:19:01;;;;;;;;;;;1.50;94.10;;;;;;4942869;29;20040;-80
2022/02/03 17:21:29;;;;;;;22.17;8.15;;;1.30;95.20;;;;;;4955365;29;19916;-79
2022/02/03 17:23:55;;;;;;;16.33;6.97;;;1.20;95.70;;;;;;4936375;29;20038;-79
2022/02/03 17:26:34;;;;;;;;;;;1.00;96.00;;;;;;4957313;28;20028;-79
2022/02/03 17:29:14;;;;;;;26.00;9.20;;;1.00;96.60;;;;;;4956836;29;19930;-80
2022/02/03 17:32:02;;;;;;;22.42;9.50;;;1.00;97.10;;;;;;4957189;29;20044;-79
2022/02/03 17:45:18;;;;;;;41.63;15.00;;;0.90;98.00;;;;;;4959380;29;20015;-80
2022/02/03 18:10:24;;;;;;;148.05;63.15;;;0.60;99.90;;;;;;4952707;29;20088;-79
2022/02/03 18:19:31;;;;;;;151.15;59.85;;;0.50;99.90;;;;;;4957374;29;20075;-79
2022/02/03 18:58:33;;;;;;;111.05;53.75;;;0.20;99.90;;;;;;4947407;29;20048;-80
2022/02/03 19:23:25;;;;;;;113.72;52.70;;;-0.10;99.90;;;;;;4952362;29;20120;-79
2022/02/03 20:02:53;;;;;;;133.10;61.75;;;0.20;99.90;;;;;;4963397;29;20016;-82
2022/02/03 20:07:51;;;;;;;126.97;54.33;;;0.40;99.90;;;;;;4963271;29;20031;-80
2022/02/03 20:10:26;;;;;;;103.03;47.33;;;0.40;99.90;;;;;;4945926;29;20023;-79
2022/02/03 20:12:52;;;;;;;105.05;48.70;;;0.40;99.90;;;;;;4962831;28;20004;-81
2022/02/03 20:35:42;;;;;;;66.90;30.13;;;0.70;99.90;;;;;;514107;27;20308;-78
2022/02/03 20:38:08;;;;;;;66.00;29.45;;;0.70;99.90;;;;;;4919531;29;20076;-80
2022/02/03 20:40:35;;;;;;;93.20;38.05;;;0.80;99.90;;;;;;4924384;29;20136;-78
2022/02/03 20:43:01;;;;;;;165.35;66.55;;;0.80;99.90;;;;;;4924622;29;20079;-79
2022/02/03 20:45:27;;;;;;;;;;;0.80;99.90;;;;;;4930414;29;20039;-80
2022/02/03 20:47:52;;;;;;;230.32;85.80;;;0.80;99.90;;;;;;4933407;29;19915;-79
2022/02/03 20:50:20;;;;;;;;;;;0.80;99.90;;;;;;4933270;29;20103;-80
2022/02/03 20:52:46;;;;;;;172.57;68.45;;;0.80;99.90;;;;;;4939457;29;19892;-81
2022/02/03 20:55:13;;;;;;;157.43;63.97;;;0.90;99.90;;;;;;4938237;29;20032;-80
2022/02/03 20:57:38;;;;;;;122.85;53.20;;;0.90;99.90;;;;;;4916677;29;20033;-79
2022/02/03 21:05:05;;;;;;;;;;;1.00;99.90;;;;;;4922583;29;20032;-77
2022/02/03 21:07:32;;;;;;;145.20;60.58;;;1.00;99.90;;;;;;4907639;29;19978;-79
2022/02/03 21:10:01;;;;;;;134.27;54.88;;;1.00;99.90;;;;;;4935613;29;20093;-79
2022/02/03 21:12:29;;;;;;;116.38;50.22;;;1.00;99.90;;;;;;4937335;29;20485;-79
2022/02/03 21:27:54;;;;;;;111.38;45.17;;;1.00;99.90;;;;;;5657226;23;20068;-79
2022/02/03 21:30:21;;;;;;;101.78;43.25;;;1.00;99.90;;;;;;4923420;29;20021;-79
2022/02/03 21:32:48;;;;;;;221.43;87.75;;;0.90;99.90;;;;;;4919039;29;20038;-79
2022/02/03 21:35:15;;;;;;;227.23;90.72;;;1.10;99.90;;;;;;4924493;29;20024;-80
2022/02/03 21:37:42;;;;;;;243.85;96.80;;;1.20;99.90;;;;;;4942244;29;20032;-79
2022/02/03 21:40:08;;;;;;;324.90;123.35;;;0.90;99.90;;;;;;4925769;29;20065;-80
2022/02/03 21:42:34;;;;;;;279.05;109.00;;;1.10;99.90;;;;;;4918316;29;20032;-79
2022/02/03 21:45:01;;;;;;;214.88;83.93;;;1.00;99.90;;;;;;4920610;29;20031;-80
2022/02/03 21:47:27;;;;;;;192.45;76.85;;;1.20;99.90;;;;;;4942677;29;20018;-79
2022/02/03 21:49:53;;;;;;;;;;;1.10;99.90;;;;;;4942216;29;20012;-81
2022/02/03 21:52:21;;;;;;;65.88;26.23;;;1.00;99.90;;;;;;4942173;29;19915;-81
2022/02/03 21:54:48;;;;;;;78.40;35.53;;;1.00;99.90;;;;;;4941810;29;20035;-79
2022/02/03 21:57:14;;;;;;;92.35;42.45;;;1.20;99.90;;;;;;4942481;29;20032;-80
2022/02/03 21:59:40;;;;;;;107.72;47.97;;;1.20;99.90;;;;;;4924891;29;20032;-78
2022/02/03 22:02:07;;;;;;;;;;;1.20;99.90;;;;;;4925972;29;20034;-83
2022/02/03 22:04:33;;;;;;;148.85;62.05;;;1.20;99.90;;;;;;4942616;29;19902;-80
2022/02/03 22:06:58;;;;;;;;;;;1.20;99.90;;;;;;4943074;29;20044;-80
2022/02/03 22:09:27;;;;;;;128.00;47.72;;;1.20;99.90;;;;;;4938755;29;19939;-78
2022/02/03 22:11:53;;;;;;;114.05;46.88;;;1.20;99.90;;;;;;4920872;29;20080;-79
2022/02/03 22:14:19;;;;;;;;;;;1.20;99.90;;;;;;4934345;29;20048;-79
2022/02/03 22:16:47;;;;;;;116.63;45.20;;;1.20;99.90;;;;;;4939661;29;19895;-79
2022/02/03 22:19:12;;;;;;;115.60;46.58;;;1.20;99.90;;;;;;4925731;29;20004;-80
2022/02/03 22:24:16;;;;;;;94.50;40.15;;;1.20;99.90;;;;;;4942030;29;19895;-77
2022/02/03 22:46:13;;;;;;;64.70;32.40;;;1.20;99.90;;;;;;4931530;29;20055;-78
2022/02/03 22:48:39;;;;;;;73.70;34.08;;;1.10;99.90;;;;;;4924673;29;20099;-78
2022/02/03 22:51:06;;;;;;;;;;;1.20;99.90;;;;;;4930781;29;20036;-78
2022/02/03 22:53:35;;;;;;;65.20;31.10;;;1.20;99.90;;;;;;4940602;29;19915;-79
2022/02/03 22:56:09;;;;;;;62.28;29.00;;;1.20;99.90;;;;;;4942713;29;20107;-79
2022/02/03 23:01:13;;;;;;;36.15;17.05;;;1.20;99.90;;;;;;4945606;29;20008;-80
2022/02/03 23:03:43;;;;;;;30.42;14.30;;;1.10;99.90;;;;;;4914330;29;20012;-79
2022/02/03 23:06:10;;;;;;;27.13;12.73;;;1.20;99.90;;;;;;4945727;29;20076;-80
2022/02/03 23:14:02;;;;;;;29.83;13.27;;;1.10;99.90;;;;;;4910032;29;20064;-78
2022/02/03 23:19:37;;;;;;;34.70;15.27;;;1.10;99.90;;;;;;4926147;29;20024;-80
2022/02/03 23:24:34;;;;;;;63.92;29.70;;;1.10;99.90;;;;;;4925422;29;20035;-79
2022/02/03 23:27:36;;;;;;;;;;;1.10;99.90;;;;;;4925828;29;20017;-78
2022/02/03 23:29:58;;;;;;;49.88;21.73;;;1.10;99.90;;;;;;4902754;29;19930;-78
2022/02/03 23:32:24;;;;;;;38.97;15.75;;;1.00;99.90;;;;;;4901450;29;20036;-79
2022/02/03 23:37:29;;;;;;;25.30;10.07;;;1.20;99.90;;;;;;4904120;29;19912;-81
